sensor_id;sensor_type;location;lat;lon;timestamp;P1;durP1;ratioP1;P2;durP2;ratioP2
57325;SDS011;43161;50.950;18.224;2023-06-22T00:01:10;22.10;;;12.70;;
57325;SDS011;43161;50.950;18.224;2023-06-22T00:03:35;22.60;;;13.20;;
57325;SDS011;43161;50.950;18.224;2023-06-22T00:06:01;21.10;;;12.80;;
57325;SDS011;43161;50.950;18.224;2023-06-22T00:08:26;20.60;;;12.20;;
57325;SDS011;43161;50.950;18.224;2023-06-22T00:10:52;21.30;;;13.20;;
57325;SDS011;43161;50.950;18.224;2023-06-22T00:13:17;22.70;;;12.30;;
57325;SDS011;43161;50.950;18.224;2023-06-22T00:15:43;21.50;;;13.40;;
57325;SDS011;43161;50.950;18.224;2023-06-22T00:18:09;22.00;;;13.50;;
57325;SDS011;43161;50.950;18.224;2023-06-22T00:20:36;20.10;;;12.50;;
57325;SDS011;43161;50.950;18.224;2023-06-22T00:23:03;22.00;;;12.90;;
57325;SDS011;43161;50.950;18.224;2023-06-22T00:25:38;23.30;;;14.40;;
57325;SDS011;43161;50.950;18.224;2023-06-22T00:28:07;24.60;;;14.70;;
57325;SDS011;43161;50.950;18.224;2023-06-22T00:30:33;22.50;;;14.10;;
57325;SDS011;43161;50.950;18.224;2023-06-22T00:32:59;24.20;;;14.80;;
57325;SDS011;43161;50.950;18.224;2023-06-22T00:35:25;22.80;;;14.10;;
57325;SDS011;43161;50.950;18.224;2023-06-22T00:37:57;22.70;;;14.50;;
57325;SDS011;43161;50.950;18.224;2023-06-22T00:40:26;25.10;;;15.40;;
57325;SDS011;43161;50.950;18.224;2023-06-22T00:42:53;24.40;;;15.40;;
57325;SDS011;43161;50.950;18.224;2023-06-22T00:45:19;24.80;;;15.10;;
57325;SDS011;43161;50.950;18.224;2023-06-22T00:47:44;26.90;;;15.00;;
57325;SDS011;43161;50.950;18.224;2023-06-22T00:50:10;24.80;;;15.60;;
57325;SDS011;43161;50.950;18.224;2023-06-22T00:52:39;24.20;;;15.10;;
57325;SDS011;43161;50.950;18.224;2023-06-22T00:55:11;25.20;;;16.20;;
57325;SDS011;43161;50.950;18.224;2023-06-22T00:57:37;26.40;;;15.10;;
57325;SDS011;43161;50.950;18.224;2023-06-22T01:00:03;28.60;;;17.00;;
57325;SDS011;43161;50.950;18.224;2023-06-22T01:02:33;25.10;;;16.30;;
57325;SDS011;43161;50.950;18.224;2023-06-22T01:04:59;26.50;;;17.60;;
57325;SDS011;43161;50.950;18.224;2023-06-22T01:10:07;27.20;;;17.20;;
57325;SDS011;43161;50.950;18.224;2023-06-22T01:12:34;25.30;;;15.70;;
57325;SDS011;43161;50.950;18.224;2023-06-22T01:15:09;28.40;;;18.30;;
57325;SDS011;43161;50.950;18.224;2023-06-22T01:17:37;28.10;;;18.60;;
57325;SDS011;43161;50.950;18.224;2023-06-22T01:20:05;30.90;;;20.30;;
57325;SDS011;43161;50.950;18.224;2023-06-22T01:22:33;30.80;;;19.90;;
57325;SDS011;43161;50.950;18.224;2023-06-22T01:27:55;31.40;;;20.30;;
57325;SDS011;43161;50.950;18.224;2023-06-22T01:32:53;32.70;;;20.40;;
57325;SDS011;43161;50.950;18.224;2023-06-22T01:35:19;36.40;;;22.10;;
57325;SDS011;43161;50.950;18.224;2023-06-22T01:37:45;36.00;;;22.20;;
57325;SDS011;43161;50.950;18.224;2023-06-22T01:40:12;35.60;;;20.40;;
57325;SDS011;43161;50.950;18.224;2023-06-22T01:42:38;31.70;;;19.90;;
57325;SDS011;43161;50.950;18.224;2023-06-22T01:45:04;34.90;;;22.10;;
57325;SDS011;43161;50.950;18.224;2023-06-22T01:47:31;37.50;;;23.70;;
57325;SDS011;43161;50.950;18.224;2023-06-22T01:49:57;31.50;;;22.00;;
57325;SDS011;43161;50.950;18.224;2023-06-22T01:52:23;33.50;;;21.40;;
57325;SDS011;43161;50.950;18.224;2023-06-22T01:54:48;33.30;;;22.30;;
57325;SDS011;43161;50.950;18.224;2023-06-22T01:57:14;32.90;;;21.70;;
57325;SDS011;43161;50.950;18.224;2023-06-22T02:02:25;34.00;;;22.30;;
57325;SDS011;43161;50.950;18.224;2023-06-22T02:04:56;33.60;;;21.60;;
57325;SDS011;43161;50.950;18.224;2023-06-22T02:07:26;38.90;;;22.60;;
57325;SDS011;43161;50.950;18.224;2023-06-22T02:09:54;33.70;;;20.70;;
57325;SDS011;43161;50.950;18.224;2023-06-22T02:12:21;31.20;;;20.60;;
57325;SDS011;43161;50.950;18.224;2023-06-22T02:14:48;36.20;;;23.70;;
57325;SDS011;43161;50.950;18.224;2023-06-22T02:17:14;35.20;;;21.90;;
57325;SDS011;43161;50.950;18.224;2023-06-22T02:19:41;34.40;;;21.90;;
57325;SDS011;43161;50.950;18.224;2023-06-22T02:22:07;36.60;;;23.40;;
57325;SDS011;43161;50.950;18.224;2023-06-22T02:24:33;38.80;;;22.10;;
57325;SDS011;43161;50.950;18.224;2023-06-22T02:26:59;40.10;;;23.90;;
57325;SDS011;43161;50.950;18.224;2023-06-22T02:29:25;40.90;;;24.50;;
57325;SDS011;43161;50.950;18.224;2023-06-22T02:31:52;33.70;;;22.50;;
57325;SDS011;43161;50.950;18.224;2023-06-22T02:34:19;36.80;;;21.40;;
57325;SDS011;43161;50.950;18.224;2023-06-22T02:36:48;33.70;;;22.20;;
57325;SDS011;43161;50.950;18.224;2023-06-22T02:39:20;33.10;;;20.50;;
57325;SDS011;43161;50.950;18.224;2023-06-22T02:41:51;41.70;;;22.70;;
57325;SDS011;43161;50.950;18.224;2023-06-22T02:44:17;36.70;;;22.80;;
57325;SDS011;43161;50.950;18.224;2023-06-22T02:46:43;38.90;;;23.20;;
57325;SDS011;43161;50.950;18.224;2023-06-22T02:49:10;39.70;;;22.90;;
57325;SDS011;43161;50.950;18.224;2023-06-22T02:51:37;39.70;;;22.50;;
57325;SDS011;43161;50.950;18.224;2023-06-22T02:54:05;38.50;;;21.90;;
57325;SDS011;43161;50.950;18.224;2023-06-22T02:56:31;38.60;;;21.10;;
57325;SDS011;43161;50.950;18.224;2023-06-22T02:58:57;38.00;;;21.50;;
57325;SDS011;43161;50.950;18.224;2023-06-22T03:01:29;34.50;;;20.70;;
57325;SDS011;43161;50.950;18.224;2023-06-22T03:03:58;34.90;;;20.70;;
57325;SDS011;43161;50.950;18.224;2023-06-22T03:06:23;35.30;;;21.50;;
57325;SDS011;43161;50.950;18.224;2023-06-22T03:08:58;39.60;;;23.00;;
57325;SDS011;43161;50.950;18.224;2023-06-22T03:11:24;38.00;;;22.70;;
57325;SDS011;43161;50.950;18.224;2023-06-22T03:13:50;35.10;;;19.50;;
57325;SDS011;43161;50.950;18.224;2023-06-22T03:16:17;37.80;;;22.80;;
57325;SDS011;43161;50.950;18.224;2023-06-22T03:18:43;33.80;;;21.30;;
57325;SDS011;43161;50.950;18.224;2023-06-22T03:21:09;34.90;;;21.20;;
57325;SDS011;43161;50.950;18.224;2023-06-22T03:23:35;40.50;;;22.90;;
57325;SDS011;43161;50.950;18.224;2023-06-22T03:26:02;39.80;;;23.50;;
57325;SDS011;43161;50.950;18.224;2023-06-22T03:28:28;40.50;;;28.10;;
57325;SDS011;43161;50.950;18.224;2023-06-22T03:30:56;43.20;;;28.10;;
57325;SDS011;43161;50.950;18.224;2023-06-22T03:33:23;43.40;;;29.40;;
57325;SDS011;43161;50.950;18.224;2023-06-22T03:35:48;45.70;;;29.70;;
57325;SDS011;43161;50.950;18.224;2023-06-22T03:38:16;44.60;;;30.00;;
57325;SDS011;43161;50.950;18.224;2023-06-22T03:40:42;44.70;;;28.70;;
57325;SDS011;43161;50.950;18.224;2023-06-22T03:43:07;41.10;;;28.70;;
57325;SDS011;43161;50.950;18.224;2023-06-22T03:45:33;44.70;;;30.50;;
57325;SDS011;43161;50.950;18.224;2023-06-22T03:47:58;44.10;;;30.10;;
57325;SDS011;43161;50.950;18.224;2023-06-22T03:50:25;44.00;;;30.20;;
57325;SDS011;43161;50.950;18.224;2023-06-22T03:52:51;48.80;;;29.60;;
57325;SDS011;43161;50.950;18.224;2023-06-22T03:55:19;45.60;;;30.70;;
57325;SDS011;43161;50.950;18.224;2023-06-22T03:57:45;45.70;;;31.10;;
57325;SDS011;43161;50.950;18.224;2023-06-22T04:00:11;43.60;;;30.70;;
57325;SDS011;43161;50.950;18.224;2023-06-22T04:02:37;44.50;;;31.00;;
57325;SDS011;43161;50.950;18.224;2023-06-22T04:05:03;44.60;;;30.70;;
57325;SDS011;43161;50.950;18.224;2023-06-22T04:07:29;46.40;;;31.60;;
57325;SDS011;43161;50.950;18.224;2023-06-22T04:09:54;45.50;;;32.20;;
57325;SDS011;43161;50.950;18.224;2023-06-22T04:12:20;43.40;;;30.30;;
57325;SDS011;43161;50.950;18.224;2023-06-22T04:14:46;45.10;;;33.30;;
57325;SDS011;43161;50.950;18.224;2023-06-22T04:17:11;48.50;;;32.90;;
57325;SDS011;43161;50.950;18.224;2023-06-22T04:19:39;48.20;;;32.20;;
57325;SDS011;43161;50.950;18.224;2023-06-22T04:22:05;49.20;;;32.10;;
57325;SDS011;43161;50.950;18.224;2023-06-22T04:24:35;44.90;;;31.50;;
57325;SDS011;43161;50.950;18.224;2023-06-22T04:27:01;45.80;;;32.00;;
57325;SDS011;43161;50.950;18.224;2023-06-22T04:29:31;44.40;;;32.00;;
57325;SDS011;43161;50.950;18.224;2023-06-22T04:31:57;47.30;;;32.90;;
57325;SDS011;43161;50.950;18.224;2023-06-22T04:34:24;44.40;;;31.80;;
57325;SDS011;43161;50.950;18.224;2023-06-22T04:36:53;44.10;;;31.00;;
57325;SDS011;43161;50.950;18.224;2023-06-22T04:39:19;41.80;;;29.40;;
57325;SDS011;43161;50.950;18.224;2023-06-22T04:41:44;47.50;;;31.90;;
57325;SDS011;43161;50.950;18.224;2023-06-22T04:44:11;43.50;;;30.40;;
57325;SDS011;43161;50.950;18.224;2023-06-22T04:46:57;43.60;;;30.50;;
57325;SDS011;43161;50.950;18.224;2023-06-22T04:49:27;42.40;;;30.10;;
57325;SDS011;43161;50.950;18.224;2023-06-22T04:51:58;40.30;;;28.70;;
57325;SDS011;43161;50.950;18.224;2023-06-22T04:54:24;41.90;;;29.50;;
57325;SDS011;43161;50.950;18.224;2023-06-22T04:56:50;40.70;;;28.50;;
57325;SDS011;43161;50.950;18.224;2023-06-22T04:59:31;38.30;;;27.80;;
57325;SDS011;43161;50.950;18.224;2023-06-22T05:01:57;41.20;;;27.40;;
57325;SDS011;43161;50.950;18.224;2023-06-22T05:04:23;36.00;;;26.40;;
57325;SDS011;43161;50.950;18.224;2023-06-22T05:06:50;36.20;;;25.80;;
57325;SDS011;43161;50.950;18.224;2023-06-22T05:09:19;33.90;;;22.10;;
57325;SDS011;43161;50.950;18.224;2023-06-22T05:11:46;32.20;;;23.30;;
57325;SDS011;43161;50.950;18.224;2023-06-22T05:14:12;33.10;;;21.50;;
57325;SDS011;43161;50.950;18.224;2023-06-22T05:16:38;27.70;;;19.30;;
57325;SDS011;43161;50.950;18.224;2023-06-22T05:19:04;26.40;;;18.00;;
57325;SDS011;43161;50.950;18.224;2023-06-22T05:21:30;27.80;;;17.20;;
57325;SDS011;43161;50.950;18.224;2023-06-22T05:23:56;23.20;;;14.40;;
57325;SDS011;43161;50.950;18.224;2023-06-22T05:26:25;20.50;;;13.70;;
57325;SDS011;43161;50.950;18.224;2023-06-22T05:28:52;23.10;;;13.40;;
57325;SDS011;43161;50.950;18.224;2023-06-22T05:31:18;20.90;;;13.00;;
57325;SDS011;43161;50.950;18.224;2023-06-22T05:33:45;20.00;;;12.60;;
57325;SDS011;43161;50.950;18.224;2023-06-22T05:36:11;19.20;;;12.00;;
57325;SDS011;43161;50.950;18.224;2023-06-22T05:38:38;20.00;;;12.30;;
57325;SDS011;43161;50.950;18.224;2023-06-22T05:41:04;19.90;;;12.10;;
57325;SDS011;43161;50.950;18.224;2023-06-22T05:43:30;19.70;;;12.20;;
57325;SDS011;43161;50.950;18.224;2023-06-22T05:45:56;17.30;;;10.80;;
57325;SDS011;43161;50.950;18.224;2023-06-22T05:48:22;17.80;;;10.70;;
57325;SDS011;43161;50.950;18.224;2023-06-22T05:50:48;21.30;;;10.50;;
57325;SDS011;43161;50.950;18.224;2023-06-22T05:53:14;17.70;;;10.90;;
57325;SDS011;43161;50.950;18.224;2023-06-22T05:55:40;19.10;;;11.40;;
57325;SDS011;43161;50.950;18.224;2023-06-22T05:58:07;19.80;;;11.50;;
57325;SDS011;43161;50.950;18.224;2023-06-22T06:00:34;19.80;;;11.80;;
57325;SDS011;43161;50.950;18.224;2023-06-22T06:03:00;20.20;;;11.30;;
57325;SDS011;43161;50.950;18.224;2023-06-22T06:05:29;18.20;;;11.10;;
57325;SDS011;43161;50.950;18.224;2023-06-22T06:07:56;19.00;;;11.40;;
57325;SDS011;43161;50.950;18.224;2023-06-22T06:10:22;17.90;;;11.70;;
57325;SDS011;43161;50.950;18.224;2023-06-22T06:12:47;18.60;;;10.80;;
57325;SDS011;43161;50.950;18.224;2023-06-22T06:15:13;18.60;;;10.00;;
57325;SDS011;43161;50.950;18.224;2023-06-22T06:17:49;17.20;;;10.40;;
57325;SDS011;43161;50.950;18.224;2023-06-22T06:20:18;18.60;;;9.50;;
57325;SDS011;43161;50.950;18.224;2023-06-22T06:22:46;17.30;;;9.20;;
57325;SDS011;43161;50.950;18.224;2023-06-22T06:25:12;15.40;;;8.90;;
57325;SDS011;43161;50.950;18.224;2023-06-22T06:27:48;14.70;;;8.80;;
57325;SDS011;43161;50.950;18.224;2023-06-22T06:30:15;13.60;;;7.60;;
57325;SDS011;43161;50.950;18.224;2023-06-22T06:32:43;26.00;;;9.30;;
57325;SDS011;43161;50.950;18.224;2023-06-22T06:35:11;19.80;;;8.40;;
57325;SDS011;43161;50.950;18.224;2023-06-22T06:37:41;15.70;;;8.20;;
57325;SDS011;43161;50.950;18.224;2023-06-22T06:40:09;16.60;;;9.50;;
57325;SDS011;43161;50.950;18.224;2023-06-22T06:42:39;17.60;;;8.70;;
57325;SDS011;43161;50.950;18.224;2023-06-22T06:45:15;16.70;;;9.20;;
57325;SDS011;43161;50.950;18.224;2023-06-22T06:47:42;14.30;;;8.10;;
57325;SDS011;43161;50.950;18.224;2023-06-22T06:50:08;14.50;;;7.90;;
57325;SDS011;43161;50.950;18.224;2023-06-22T06:52:35;13.80;;;8.10;;
57325;SDS011;43161;50.950;18.224;2023-06-22T06:55:01;14.10;;;7.80;;
57325;SDS011;43161;50.950;18.224;2023-06-22T06:57:28;13.50;;;7.20;;
57325;SDS011;43161;50.950;18.224;2023-06-22T06:59:56;14.40;;;7.80;;
57325;SDS011;43161;50.950;18.224;2023-06-22T07:02:25;13.90;;;8.10;;
57325;SDS011;43161;50.950;18.224;2023-06-22T07:04:53;14.40;;;8.20;;
57325;SDS011;43161;50.950;18.224;2023-06-22T07:07:22;19.20;;;7.70;;
57325;SDS011;43161;50.950;18.224;2023-06-22T07:09:47;15.90;;;7.50;;
57325;SDS011;43161;50.950;18.224;2023-06-22T07:12:13;13.70;;;7.60;;
57325;SDS011;43161;50.950;18.224;2023-06-22T07:14:39;14.20;;;7.50;;
57325;SDS011;43161;50.950;18.224;2023-06-22T07:17:04;16.50;;;7.90;;
57325;SDS011;43161;50.950;18.224;2023-06-22T07:19:30;14.20;;;8.10;;
57325;SDS011;43161;50.950;18.224;2023-06-22T07:21:56;14.40;;;8.20;;
57325;SDS011;43161;50.950;18.224;2023-06-22T07:24:22;15.40;;;8.60;;
57325;SDS011;43161;50.950;18.224;2023-06-22T07:26:50;15.20;;;8.40;;
57325;SDS011;43161;50.950;18.224;2023-06-22T07:29:16;16.10;;;8.60;;
57325;SDS011;43161;50.950;18.224;2023-06-22T07:31:43;14.10;;;7.90;;
57325;SDS011;43161;50.950;18.224;2023-06-22T07:34:10;18.20;;;7.90;;
57325;SDS011;43161;50.950;18.224;2023-06-22T07:36:35;14.30;;;8.30;;
57325;SDS011;43161;50.950;18.224;2023-06-22T07:39:04;17.50;;;8.80;;
57325;SDS011;43161;50.950;18.224;2023-06-22T07:41:30;14.20;;;8.80;;
57325;SDS011;43161;50.950;18.224;2023-06-22T07:43:56;12.90;;;7.90;;
57325;SDS011;43161;50.950;18.224;2023-06-22T07:46:22;14.00;;;8.50;;
57325;SDS011;43161;50.950;18.224;2023-06-22T07:48:48;15.50;;;8.20;;
57325;SDS011;43161;50.950;18.224;2023-06-22T07:51:14;14.80;;;8.60;;
57325;SDS011;43161;50.950;18.224;2023-06-22T07:53:40;16.60;;;9.50;;
57325;SDS011;43161;50.950;18.224;2023-06-22T07:56:07;18.40;;;9.10;;
57325;SDS011;43161;50.950;18.224;2023-06-22T07:58:33;14.90;;;9.40;;
57325;SDS011;43161;50.950;18.224;2023-06-22T08:00:59;15.80;;;9.70;;
57325;SDS011;43161;50.950;18.224;2023-06-22T08:03:25;14.10;;;8.50;;
57325;SDS011;43161;50.950;18.224;2023-06-22T08:05:50;13.60;;;8.80;;
57325;SDS011;43161;50.950;18.224;2023-06-22T08:08:16;14.40;;;8.80;;
57325;SDS011;43161;50.950;18.224;2023-06-22T08:10:41;17.20;;;9.40;;
57325;SDS011;43161;50.950;18.224;2023-06-22T08:13:08;13.40;;;8.50;;
57325;SDS011;43161;50.950;18.224;2023-06-22T08:15:35;16.70;;;8.30;;
57325;SDS011;43161;50.950;18.224;2023-06-22T08:18:00;16.20;;;8.40;;
57325;SDS011;43161;50.950;18.224;2023-06-22T08:20:26;15.40;;;8.20;;
57325;SDS011;43161;50.950;18.224;2023-06-22T08:22:52;15.00;;;8.10;;
57325;SDS011;43161;50.950;18.224;2023-06-22T08:25:19;15.20;;;8.60;;
57325;SDS011;43161;50.950;18.224;2023-06-22T08:27:47;15.60;;;8.40;;
57325;SDS011;43161;50.950;18.224;2023-06-22T08:30:15;15.60;;;9.00;;
57325;SDS011;43161;50.950;18.224;2023-06-22T08:32:43;16.10;;;8.40;;
57325;SDS011;43161;50.950;18.224;2023-06-22T08:35:09;15.20;;;9.00;;
57325;SDS011;43161;50.950;18.224;2023-06-22T08:37:34;16.00;;;9.20;;
57325;SDS011;43161;50.950;18.224;2023-06-22T08:40:01;13.70;;;8.60;;
57325;SDS011;43161;50.950;18.224;2023-06-22T08:42:32;14.00;;;8.90;;
57325;SDS011;43161;50.950;18.224;2023-06-22T08:44:58;15.20;;;8.90;;
57325;SDS011;43161;50.950;18.224;2023-06-22T08:47:24;20.70;;;8.80;;
57325;SDS011;43161;50.950;18.224;2023-06-22T08:49:50;14.90;;;8.30;;
57325;SDS011;43161;50.950;18.224;2023-06-22T08:52:17;14.70;;;8.70;;
57325;SDS011;43161;50.950;18.224;2023-06-22T08:54:43;18.50;;;8.50;;
57325;SDS011;43161;50.950;18.224;2023-06-22T08:57:08;16.20;;;8.10;;
57325;SDS011;43161;50.950;18.224;2023-06-22T08:59:34;14.00;;;8.40;;
57325;SDS011;43161;50.950;18.224;2023-06-22T09:02:00;13.90;;;8.50;;
57325;SDS011;43161;50.950;18.224;2023-06-22T09:04:26;17.40;;;8.50;;
57325;SDS011;43161;50.950;18.224;2023-06-22T09:06:51;14.50;;;7.60;;
57325;SDS011;43161;50.950;18.224;2023-06-22T09:09:17;12.70;;;7.40;;
57325;SDS011;43161;50.950;18.224;2023-06-22T09:11:44;13.40;;;7.80;;
57325;SDS011;43161;50.950;18.224;2023-06-22T09:14:10;15.60;;;7.70;;
57325;SDS011;43161;50.950;18.224;2023-06-22T09:16:36;13.30;;;7.50;;
57325;SDS011;43161;50.950;18.224;2023-06-22T09:19:02;13.30;;;7.80;;
57325;SDS011;43161;50.950;18.224;2023-06-22T09:21:28;13.30;;;7.60;;
57325;SDS011;43161;50.950;18.224;2023-06-22T09:23:54;15.30;;;8.00;;
57325;SDS011;43161;50.950;18.224;2023-06-22T09:26:20;13.40;;;7.60;;
57325;SDS011;43161;50.950;18.224;2023-06-22T09:28:47;13.70;;;7.20;;
57325;SDS011;43161;50.950;18.224;2023-06-22T09:31:13;18.40;;;6.70;;
57325;SDS011;43161;50.950;18.224;2023-06-22T09:33:39;14.30;;;6.70;;
57325;SDS011;43161;50.950;18.224;2023-06-22T09:36:05;13.00;;;6.80;;
57325;SDS011;43161;50.950;18.224;2023-06-22T09:38:38;13.20;;;7.50;;
57325;SDS011;43161;50.950;18.224;2023-06-22T09:41:04;17.80;;;7.40;;
57325;SDS011;43161;50.950;18.224;2023-06-22T09:43:31;12.20;;;6.50;;
57325;SDS011;43161;50.950;18.224;2023-06-22T09:45:57;12.90;;;6.20;;
57325;SDS011;43161;50.950;18.224;2023-06-22T09:48:23;14.00;;;7.20;;
57325;SDS011;43161;50.950;18.224;2023-06-22T09:50:49;13.90;;;6.30;;
57325;SDS011;43161;50.950;18.224;2023-06-22T09:53:14;12.50;;;7.00;;
57325;SDS011;43161;50.950;18.224;2023-06-22T09:55:40;13.50;;;6.40;;
57325;SDS011;43161;50.950;18.224;2023-06-22T09:58:06;14.60;;;6.60;;
57325;SDS011;43161;50.950;18.224;2023-06-22T10:00:31;12.00;;;6.30;;
57325;SDS011;43161;50.950;18.224;2023-06-22T10:02:57;10.60;;;5.40;;
57325;SDS011;43161;50.950;18.224;2023-06-22T10:05:23;10.70;;;5.30;;
57325;SDS011;43161;50.950;18.224;2023-06-22T10:07:50;11.70;;;6.20;;
57325;SDS011;43161;50.950;18.224;2023-06-22T10:10:15;11.80;;;6.10;;
57325;SDS011;43161;50.950;18.224;2023-06-22T10:12:42;13.70;;;6.60;;
57325;SDS011;43161;50.950;18.224;2023-06-22T10:15:09;11.40;;;6.20;;
57325;SDS011;43161;50.950;18.224;2023-06-22T10:17:35;14.30;;;6.20;;
57325;SDS011;43161;50.950;18.224;2023-06-22T10:20:01;12.10;;;6.70;;
57325;SDS011;43161;50.950;18.224;2023-06-22T10:22:31;12.30;;;6.60;;
57325;SDS011;43161;50.950;18.224;2023-06-22T10:24:57;13.40;;;6.30;;
57325;SDS011;43161;50.950;18.224;2023-06-22T10:27:23;12.10;;;6.10;;
57325;SDS011;43161;50.950;18.224;2023-06-22T10:29:49;10.40;;;5.70;;
57325;SDS011;43161;50.950;18.224;2023-06-22T10:32:14;11.40;;;5.20;;
57325;SDS011;43161;50.950;18.224;2023-06-22T10:34:40;11.20;;;5.70;;
57325;SDS011;43161;50.950;18.224;2023-06-22T10:37:06;10.60;;;5.40;;
57325;SDS011;43161;50.950;18.224;2023-06-22T10:39:32;11.10;;;5.80;;
57325;SDS011;43161;50.950;18.224;2023-06-22T10:41:57;12.40;;;5.90;;
57325;SDS011;43161;50.950;18.224;2023-06-22T10:44:23;10.60;;;5.40;;
57325;SDS011;43161;50.950;18.224;2023-06-22T10:46:49;10.10;;;5.00;;
57325;SDS011;43161;50.950;18.224;2023-06-22T10:49:15;10.90;;;4.50;;
57325;SDS011;43161;50.950;18.224;2023-06-22T10:51:40;10.70;;;4.90;;
57325;SDS011;43161;50.950;18.224;2023-06-22T10:54:07;9.40;;;4.70;;
57325;SDS011;43161;50.950;18.224;2023-06-22T10:56:32;11.10;;;5.10;;
57325;SDS011;43161;50.950;18.224;2023-06-22T10:58:59;10.40;;;4.90;;
57325;SDS011;43161;50.950;18.224;2023-06-22T11:01:24;9.70;;;4.70;;
57325;SDS011;43161;50.950;18.224;2023-06-22T11:03:50;10.40;;;4.70;;
57325;SDS011;43161;50.950;18.224;2023-06-22T11:06:16;10.50;;;5.00;;
57325;SDS011;43161;50.950;18.224;2023-06-22T11:08:43;10.10;;;4.80;;
57325;SDS011;43161;50.950;18.224;2023-06-22T11:11:10;8.90;;;4.20;;
57325;SDS011;43161;50.950;18.224;2023-06-22T11:13:36;9.40;;;4.30;;
57325;SDS011;43161;50.950;18.224;2023-06-22T11:16:02;9.40;;;4.60;;
57325;SDS011;43161;50.950;18.224;2023-06-22T11:18:28;9.20;;;4.60;;
57325;SDS011;43161;50.950;18.224;2023-06-22T11:20:53;11.40;;;4.90;;
57325;SDS011;43161;50.950;18.224;2023-06-22T11:23:19;10.60;;;4.50;;
57325;SDS011;43161;50.950;18.224;2023-06-22T11:25:45;11.70;;;5.10;;
57325;SDS011;43161;50.950;18.224;2023-06-22T11:28:11;10.20;;;4.60;;
57325;SDS011;43161;50.950;18.224;2023-06-22T11:30:38;10.60;;;4.30;;
57325;SDS011;43161;50.950;18.224;2023-06-22T11:33:04;9.10;;;4.20;;
57325;SDS011;43161;50.950;18.224;2023-06-22T11:35:29;9.10;;;4.40;;
57325;SDS011;43161;50.950;18.224;2023-06-22T11:37:55;8.90;;;4.10;;
57325;SDS011;43161;50.950;18.224;2023-06-22T11:40:21;9.70;;;4.20;;
57325;SDS011;43161;50.950;18.224;2023-06-22T11:42:48;8.60;;;3.80;;
57325;SDS011;43161;50.950;18.224;2023-06-22T11:45:13;10.70;;;4.60;;
57325;SDS011;43161;50.950;18.224;2023-06-22T11:47:39;8.30;;;3.90;;
57325;SDS011;43161;50.950;18.224;2023-06-22T11:50:05;10.00;;;4.30;;
57325;SDS011;43161;50.950;18.224;2023-06-22T11:52:32;12.20;;;4.20;;
57325;SDS011;43161;50.950;18.224;2023-06-22T11:54:59;9.30;;;3.90;;
57325;SDS011;43161;50.950;18.224;2023-06-22T11:57:25;8.60;;;4.20;;
57325;SDS011;43161;50.950;18.224;2023-06-22T11:59:50;10.40;;;4.60;;
57325;SDS011;43161;50.950;18.224;2023-06-22T12:02:16;9.00;;;4.40;;
57325;SDS011;43161;50.950;18.224;2023-06-22T12:04:41;9.70;;;4.40;;
57325;SDS011;43161;50.950;18.224;2023-06-22T12:07:07;11.20;;;4.60;;
57325;SDS011;43161;50.950;18.224;2023-06-22T12:09:33;12.30;;;4.40;;
57325;SDS011;43161;50.950;18.224;2023-06-22T12:11:58;9.10;;;4.10;;
57325;SDS011;43161;50.950;18.224;2023-06-22T12:14:24;9.80;;;4.10;;
57325;SDS011;43161;50.950;18.224;2023-06-22T12:16:50;9.10;;;4.30;;
57325;SDS011;43161;50.950;18.224;2023-06-22T12:19:16;8.80;;;4.00;;
57325;SDS011;43161;50.950;18.224;2023-06-22T12:21:41;10.60;;;3.90;;
57325;SDS011;43161;50.950;18.224;2023-06-22T12:24:14;8.30;;;3.60;;
57325;SDS011;43161;50.950;18.224;2023-06-22T12:26:40;9.20;;;3.60;;
57325;SDS011;43161;50.950;18.224;2023-06-22T12:29:06;10.10;;;4.10;;
57325;SDS011;43161;50.950;18.224;2023-06-22T12:31:31;8.70;;;3.80;;
57325;SDS011;43161;50.950;18.224;2023-06-22T12:33:57;10.50;;;3.90;;
57325;SDS011;43161;50.950;18.224;2023-06-22T12:36:23;8.20;;;3.70;;
57325;SDS011;43161;50.950;18.224;2023-06-22T12:38:49;10.70;;;4.00;;
57325;SDS011;43161;50.950;18.224;2023-06-22T12:41:15;10.50;;;4.40;;
57325;SDS011;43161;50.950;18.224;2023-06-22T12:43:40;9.10;;;4.30;;
57325;SDS011;43161;50.950;18.224;2023-06-22T12:46:06;9.50;;;4.30;;
57325;SDS011;43161;50.950;18.224;2023-06-22T12:48:32;8.60;;;4.10;;
57325;SDS011;43161;50.950;18.224;2023-06-22T12:50:57;10.20;;;4.40;;
57325;SDS011;43161;50.950;18.224;2023-06-22T12:53:23;8.70;;;4.20;;
57325;SDS011;43161;50.950;18.224;2023-06-22T12:55:49;10.80;;;4.30;;
57325;SDS011;43161;50.950;18.224;2023-06-22T12:58:14;9.40;;;4.40;;
57325;SDS011;43161;50.950;18.224;2023-06-22T13:00:40;9.70;;;4.10;;
57325;SDS011;43161;50.950;18.224;2023-06-22T13:03:06;8.10;;;3.80;;
57325;SDS011;43161;50.950;18.224;2023-06-22T13:05:32;10.90;;;3.90;;
57325;SDS011;43161;50.950;18.224;2023-06-22T13:08:00;10.70;;;4.30;;
57325;SDS011;43161;50.950;18.224;2023-06-22T13:10:26;8.40;;;4.20;;
57325;SDS011;43161;50.950;18.224;2023-06-22T13:12:51;8.70;;;3.80;;
57325;SDS011;43161;50.950;18.224;2023-06-22T13:15:20;9.60;;;4.30;;
57325;SDS011;43161;50.950;18.224;2023-06-22T13:17:45;9.10;;;4.20;;
57325;SDS011;43161;50.950;18.224;2023-06-22T13:20:11;9.00;;;4.20;;
57325;SDS011;43161;50.950;18.224;2023-06-22T13:22:37;8.30;;;4.30;;
57325;SDS011;43161;50.950;18.224;2023-06-22T13:25:05;11.20;;;4.30;;
57325;SDS011;43161;50.950;18.224;2023-06-22T13:27:32;9.60;;;3.90;;
57325;SDS011;43161;50.950;18.224;2023-06-22T13:29:58;9.90;;;4.00;;
57325;SDS011;43161;50.950;18.224;2023-06-22T13:32:23;9.10;;;4.20;;
57325;SDS011;43161;50.950;18.224;2023-06-22T13:34:49;10.00;;;4.60;;
57325;SDS011;43161;50.950;18.224;2023-06-22T13:37:16;8.60;;;4.10;;
57325;SDS011;43161;50.950;18.224;2023-06-22T13:39:42;8.60;;;4.10;;
57325;SDS011;43161;50.950;18.224;2023-06-22T13:42:07;9.80;;;4.10;;
57325;SDS011;43161;50.950;18.224;2023-06-22T13:44:33;9.70;;;4.10;;
57325;SDS011;43161;50.950;18.224;2023-06-22T13:46:59;9.80;;;4.10;;
57325;SDS011;43161;50.950;18.224;2023-06-22T13:49:25;9.40;;;3.70;;
57325;SDS011;43161;50.950;18.224;2023-06-22T13:51:51;8.30;;;3.80;;
57325;SDS011;43161;50.950;18.224;2023-06-22T13:54:17;7.80;;;3.70;;
57325;SDS011;43161;50.950;18.224;2023-06-22T13:56:42;8.80;;;3.90;;
57325;SDS011;43161;50.950;18.224;2023-06-22T13:59:08;9.20;;;3.90;;
57325;SDS011;43161;50.950;18.224;2023-06-22T14:01:36;9.60;;;4.10;;
57325;SDS011;43161;50.950;18.224;2023-06-22T14:04:04;9.60;;;4.40;;
57325;SDS011;43161;50.950;18.224;2023-06-22T14:06:29;8.40;;;3.90;;
57325;SDS011;43161;50.950;18.224;2023-06-22T14:08:55;8.50;;;3.90;;
57325;SDS011;43161;50.950;18.224;2023-06-22T14:11:21;9.60;;;4.20;;
57325;SDS011;43161;50.950;18.224;2023-06-22T14:13:47;8.20;;;3.60;;
57325;SDS011;43161;50.950;18.224;2023-06-22T14:16:12;7.80;;;4.00;;
57325;SDS011;43161;50.950;18.224;2023-06-22T14:18:38;8.30;;;3.80;;
57325;SDS011;43161;50.950;18.224;2023-06-22T14:21:04;9.00;;;4.20;;
57325;SDS011;43161;50.950;18.224;2023-06-22T14:23:30;9.30;;;3.90;;
57325;SDS011;43161;50.950;18.224;2023-06-22T14:25:55;12.20;;;4.00;;